Time;durP1;ratioP1;P1;durP2;ratioP2;P2;SDS_P1;SDS_P2;PMS_P1;PMS_P2;Temp;Humidity;BMP_temperature;BMP_pressure;BME280_temperature;BME280_humidity;BME280_pressure;Samples;Min_cycle;Max_cycle;Signal;HPM_P1;HPM_P2
2022/05/18 00:01:59;;;;;;;8.02;3.40;;;;;;;;;;5000794;28;20034;-82
2022/05/18 00:04:26;;;;;;;5.07;3.42;;;;;;;;;;4999484;28;20073;-81
2022/05/18 00:06:51;;;;;;;5.28;3.40;;;;;;;;;;5000955;28;20030;-80
2022/05/18 00:09:17;;;;;;;5.22;3.50;;;;;;;;;;5004066;28;20034;-81
2022/05/18 00:11:42;;;;;;;4.63;3.55;;;;;;;;;;5004303;28;20057;-81
2022/05/18 00:14:08;;;;;;;8.20;3.80;;;;;;;;;;5002337;28;20096;-80
2022/05/18 00:16:33;;;;;;;5.53;3.97;;;;;;;;;;5001447;28;20034;-81
2022/05/18 00:18:59;;;;;;;8.05;3.63;;;;;;;;;;5003315;28;20403;-81
2022/05/18 00:21:25;;;;;;;7.45;3.88;;;;;;;;;;5002004;28;20030;-80
2022/05/18 00:23:51;;;;;;;7.18;3.80;;;;;;;;;;5002379;28;20129;-80
2022/05/18 00:26:16;;;;;;;7.05;4.07;;;;;;;;;;5001893;28;20034;-79
2022/05/18 00:28:42;;;;;;;8.25;4.38;;;;;;;;;;5001334;28;20616;-80
2022/05/18 00:31:09;;;;;;;6.18;3.80;;;;;;;;;;5001495;28;20034;-80
2022/05/18 00:33:34;;;;;;;5.15;3.63;;;;;;;;;;5001330;28;20468;-81
2022/05/18 00:36:00;;;;;;;7.18;4.50;;;;;;;;;;5000963;28;20042;-81
2022/05/18 00:38:26;;;;;;;9.30;4.10;;;;;;;;;;5000942;28;20042;-80
2022/05/18 00:40:52;;;;;;;6.18;4.00;;;;;;;;;;4983911;28;20030;-81
2022/05/18 00:43:37;;;;;;;5.10;3.88;;;;;;;;;;5000317;28;20503;-81
2022/05/18 00:46:06;;;;;;;6.90;3.80;;;;;;;;;;5000323;28;20048;-80
2022/05/18 00:48:32;;;;;;;6.25;3.92;;;;;;;;;;5000700;28;20042;-80
2022/05/18 00:51:02;;;;;;;7.32;3.88;;;;;;;;;;4997057;28;20499;-80
2022/05/18 00:53:31;;;;;;;6.63;3.75;;;;;;;;;;5000825;28;20040;-81
2022/05/18 00:56:08;;;;;;;5.53;3.80;;;;;;;;;;5004505;28;20088;-81
2022/05/18 00:58:44;;;;;;;5.03;4.00;;;;;;;;;;5001909;28;20035;-81
2022/05/18 01:01:10;;;;;;;7.38;3.90;;;;;;;;;;5003403;28;20030;-81
2022/05/18 01:03:41;;;;;;;5.75;4.10;;;;;;;;;;5003412;28;20045;-81
2022/05/18 01:06:15;;;;;;;6.05;4.07;;;;;;;;;;5004282;28;20038;-81
2022/05/18 01:09:05;;;;;;;7.28;4.00;;;;;;;;;;5004940;28;20038;-80
2022/05/18 01:11:34;;;;;;;5.68;4.18;;;;;;;;;;5003965;28;20034;-81
2022/05/18 01:14:02;;;;;;;8.45;4.30;;;;;;;;;;5003767;28;20046;-80
2022/05/18 01:16:28;;;;;;;6.75;3.95;;;;;;;;;;5004334;28;20026;-80
2022/05/18 01:18:56;;;;;;;4.82;3.60;;;;;;;;;;5005250;28;20030;-80
2022/05/18 01:21:29;;;;;;;6.75;3.78;;;;;;;;;;5003546;28;20038;-80
2022/05/18 01:24:07;;;;;;;5.05;3.88;;;;;;;;;;5003661;28;20097;-81
2022/05/18 01:26:47;;;;;;;6.72;3.75;;;;;;;;;;4986896;28;20042;-80
2022/05/18 01:29:13;;;;;;;7.75;3.97;;;;;;;;;;5005212;28;20399;-81
2022/05/18 01:31:51;;;;;;;9.13;4.13;;;;;;;;;;5004578;28;20060;-80
2022/05/18 01:34:20;;;;;;;6.80;3.80;;;;;;;;;;5004644;28;20038;-81
2022/05/18 01:36:45;;;;;;;7.82;4.07;;;;;;;;;;5003377;28;20081;-80
2022/05/18 01:39:18;;;;;;;5.25;3.70;;;;;;;;;;5003876;28;20034;-80
2022/05/18 01:41:52;;;;;;;4.93;3.85;;;;;;;;;;5004919;28;20038;-81
2022/05/18 01:44:18;;;;;;;4.78;3.78;;;;;;;;;;5008138;28;20101;-80
2022/05/18 01:46:46;;;;;;;5.32;4.20;;;;;;;;;;5008973;28;20365;-81
2022/05/18 01:49:11;;;;;;;4.85;3.78;;;;;;;;;;5008953;28;20085;-80
2022/05/18 01:51:43;;;;;;;5.97;4.00;;;;;;;;;;5008418;28;20092;-80
2022/05/18 01:54:09;;;;;;;5.45;3.53;;;;;;;;;;5007740;28;20050;-80
2022/05/18 01:56:35;;;;;;;7.55;3.70;;;;;;;;;;5006540;28;20030;-81
2022/05/18 01:59:00;;;;;;;8.27;3.83;;;;;;;;;;5008477;28;20053;-80
2022/05/18 02:01:26;;;;;;;5.82;3.70;;;;;;;;;;5008884;28;20588;-80
2022/05/18 02:03:51;;;;;;;7.40;3.58;;;;;;;;;;5007779;28;20054;-80
2022/05/18 02:06:17;;;;;;;5.85;3.90;;;;;;;;;;5007022;28;20037;-80
2022/05/18 02:08:43;;;;;;;6.18;3.70;;;;;;;;;;5003039;28;20129;-80
2022/05/18 02:11:19;;;;;;;4.60;3.50;;;;;;;;;;5008531;28;20034;-80
2022/05/18 02:13:45;;;;;;;7.25;3.85;;;;;;;;;;5007636;28;20042;-80
2022/05/18 02:16:11;;;;;;;5.10;3.65;;;;;;;;;;5007166;28;20559;-81
2022/05/18 02:18:37;;;;;;;5.45;3.58;;;;;;;;;;4974169;28;20073;-80
2022/05/18 02:21:04;;;;;;;5.63;3.65;;;;;;;;;;5006496;28;20034;-80
2022/05/18 02:23:30;;;;;;;6.97;3.60;;;;;;;;;;5005138;28;20114;-80
2022/05/18 02:25:55;;;;;;;6.03;3.65;;;;;;;;;;5006048;28;20050;-80
2022/05/18 02:28:21;;;;;;;8.02;3.88;;;;;;;;;;5006306;28;20042;-79
2022/05/18 02:30:46;;;;;;;7.55;3.67;;;;;;;;;;5007162;28;20145;-80
2022/05/18 02:33:12;;;;;;;4.90;3.80;;;;;;;;;;5006958;28;20026;-79
2022/05/18 02:35:40;;;;;;;7.70;3.78;;;;;;;;;;5006193;28;20042;-80
2022/05/18 02:38:06;;;;;;;7.15;3.38;;;;;;;;;;5006429;28;20041;-80
2022/05/18 02:40:32;;;;;;;5.05;3.60;;;;;;;;;;4972471;28;20073;-81
2022/05/18 02:42:57;;;;;;;7.45;3.85;;;;;;;;;;4989102;28;20057;-80
2022/05/18 02:45:23;;;;;;;6.03;3.30;;;;;;;;;;5004680;28;20034;-80
2022/05/18 02:47:48;;;;;;;4.32;3.30;;;;;;;;;;5006704;28;20038;-80
2022/05/18 02:50:14;;;;;;;4.72;3.60;;;;;;;;;;5005459;28;20097;-80
2022/05/18 02:52:39;;;;;;;4.47;3.60;;;;;;;;;;4987629;28;20038;-79
2022/05/18 02:57:50;;;;;;;6.93;3.65;;;;;;;;;;5005837;28;20081;-80
2022/05/18 03:00:16;;;;;;;5.40;3.50;;;;;;;;;;5004340;28;20035;-79
2022/05/18 03:02:41;;;;;;;4.60;3.45;;;;;;;;;;5004833;28;20038;-80
2022/05/18 03:05:08;;;;;;;7.90;3.95;;;;;;;;;;4986902;28;20426;-80
2022/05/18 03:07:33;;;;;;;5.55;3.25;;;;;;;;;;5004123;28;20053;-80
2022/05/18 03:09:59;;;;;;;6.00;3.60;;;;;;;;;;5004206;28;20041;-80
2022/05/18 03:12:25;;;;;;;9.10;3.50;;;;;;;;;;5004934;28;20030;-80
2022/05/18 03:14:50;;;;;;;4.13;3.55;;;;;;;;;;5006485;28;20097;-81
2022/05/18 03:17:16;;;;;;;5.55;3.97;;;;;;;;;;5003259;28;20407;-81
2022/05/18 03:19:41;;;;;;;6.53;3.78;;;;;;;;;;5003703;28;20034;-81
2022/05/18 03:24:50;;;;;;;4.65;3.45;;;;;;;;;;5002532;28;20038;-81
2022/05/18 03:27:17;;;;;;;5.85;3.42;;;;;;;;;;5001364;28;20125;-81
2022/05/18 03:29:43;;;;;;;4.95;3.58;;;;;;;;;;5001660;28;20490;-80
2022/05/18 03:32:08;;;;;;;5.32;3.92;;;;;;;;;;5002402;28;20033;-81
2022/05/18 03:34:34;;;;;;;4.32;3.30;;;;;;;;;;5002029;28;20038;-81
2022/05/18 03:37:00;;;;;;;5.25;3.60;;;;;;;;;;5003388;28;20038;-81
2022/05/18 03:39:26;;;;;;;6.38;3.72;;;;;;;;;;5002179;28;20069;-81
2022/05/18 03:41:52;;;;;;;5.88;3.60;;;;;;;;;;5000757;28;20063;-81
2022/05/18 03:44:19;;;;;;;6.57;3.80;;;;;;;;;;5001653;28;20042;-81
2022/05/18 03:46:44;;;;;;;6.57;4.22;;;;;;;;;;5001876;28;20034;-81
2022/05/18 03:49:10;;;;;;;9.88;4.25;;;;;;;;;;5002813;28;20072;-81
2022/05/18 03:51:37;;;;;;;8.75;4.35;;;;;;;;;;5001732;28;20030;-81
2022/05/18 03:54:03;;;;;;;8.52;4.63;;;;;;;;;;5000844;28;20038;-81
2022/05/18 03:56:29;;;;;;;9.43;4.68;;;;;;;;;;4983791;28;20035;-81
2022/05/18 03:58:55;;;;;;;6.88;4.35;;;;;;;;;;5001505;28;20113;-81
2022/05/18 04:01:21;;;;;;;7.90;4.70;;;;;;;;;;5003039;28;20066;-80
2022/05/18 04:03:48;;;;;;;8.75;4.25;;;;;;;;;;4983890;28;20101;-80
2022/05/18 04:06:14;;;;;;;8.05;4.20;;;;;;;;;;5000154;28;20553;-81
2022/05/18 04:08:40;;;;;;;8.85;4.18;;;;;;;;;;5003902;28;20113;-81
2022/05/18 04:11:07;;;;;;;6.28;4.30;;;;;;;;;;5003114;28;20518;-80
2022/05/18 04:13:33;;;;;;;5.35;4.00;;;;;;;;;;5001862;28;20034;-80
2022/05/18 04:15:58;;;;;;;6.57;4.00;;;;;;;;;;4983098;28;20533;-80
2022/05/18 04:18:25;;;;;;;5.63;4.30;;;;;;;;;;5006408;28;20038;-80
2022/05/18 04:20:52;;;;;;;8.52;4.63;;;;;;;;;;5005805;28;20026;-81
2022/05/18 04:23:18;;;;;;;7.65;4.25;;;;;;;;;;4999528;28;20042;-80
2022/05/18 04:25:43;;;;;;;7.72;4.13;;;;;;;;;;4995958;28;20026;-80
2022/05/18 04:28:13;;;;;;;5.63;4.22;;;;;;;;;;5005995;28;20042;-80
2022/05/18 04:30:43;;;;;;;10.43;6.28;;;;;;;;;;5006140;28;20038;-81
2022/05/18 04:33:11;;;;;;;9.23;5.28;;;;;;;;;;5003336;28;20040;-82
2022/05/18 04:35:36;;;;;;;12.07;7.05;;;;;;;;;;4999722;28;20050;-80
2022/05/18 04:38:02;;;;;;;10.93;5.40;;;;;;;;;;4998493;28;20514;-80
2022/05/18 04:40:27;;;;;;;5.43;4.30;;;;;;;;;;5004419;28;20045;-79
2022/05/18 04:42:53;;;;;;;4.85;3.88;;;;;;;;;;5005404;28;20073;-79
2022/05/18 04:45:21;;;;;;;6.75;3.92;;;;;;;;;;5001720;28;20053;-80
2022/05/18 04:47:47;;;;;;;5.22;3.72;;;;;;;;;;5004924;28;20027;-80
2022/05/18 04:50:13;;;;;;;7.32;4.00;;;;;;;;;;5004553;28;20034;-80
2022/05/18 04:52:38;;;;;;;5.47;4.10;;;;;;;;;;5005936;28;20042;-80
2022/05/18 04:55:04;;;;;;;5.22;3.63;;;;;;;;;;5004388;28;20037;-80
2022/05/18 04:57:30;;;;;;;8.77;4.15;;;;;;;;;;5004364;28;20034;-79
2022/05/18 04:59:55;;;;;;;10.02;3.78;;;;;;;;;;5004054;28;20022;-79
2022/05/18 05:02:22;;;;;;;6.82;3.88;;;;;;;;;;5004696;28;20055;-80
2022/05/18 05:04:48;;;;;;;5.18;3.95;;;;;;;;;;5003082;28;20041;-80
2022/05/18 05:07:13;;;;;;;8.95;3.97;;;;;;;;;;5005128;28;20041;-80
2022/05/18 05:09:39;;;;;;;7.55;3.75;;;;;;;;;;4987465;28;20042;-80
2022/05/18 05:12:07;;;;;;;8.18;4.20;;;;;;;;;;5004025;28;20042;-79
2022/05/18 05:14:37;;;;;;;5.13;3.67;;;;;;;;;;5003374;28;20074;-79
2022/05/18 05:17:03;;;;;;;7.47;4.53;;;;;;;;;;5002880;28;20038;-80
2022/05/18 05:19:29;;;;;;;5.97;4.50;;;;;;;;;;5002285;28;20045;-80
2022/05/18 05:21:54;;;;;;;8.23;4.30;;;;;;;;;;4999583;28;20121;-81
2022/05/18 05:24:19;;;;;;;8.63;5.03;;;;;;;;;;4998078;28;20097;-81
2022/05/18 05:26:45;;;;;;;10.25;5.60;;;;;;;;;;4998162;28;20046;-81
2022/05/18 05:29:12;;;;;;;8.27;5.70;;;;;;;;;;5001754;28;20089;-81
2022/05/18 05:31:38;;;;;;;10.25;5.93;;;;;;;;;;5000702;28;20048;-80
2022/05/18 05:34:05;;;;;;;7.82;5.43;;;;;;;;;;5000378;28;20038;-80
2022/05/18 05:36:31;;;;;;;6.88;5.20;;;;;;;;;;5001085;28;20030;-80
2022/05/18 05:38:57;;;;;;;7.68;4.60;;;;;;;;;;5001509;28;20039;-80
2022/05/18 05:41:24;;;;;;;7.47;5.00;;;;;;;;;;5003428;28;20042;-81
2022/05/18 05:43:50;;;;;;;10.73;4.50;;;;;;;;;;5000022;28;20046;-81
2022/05/18 05:46:17;;;;;;;5.63;4.40;;;;;;;;;;4997038;28;20030;-81
2022/05/18 05:48:45;;;;;;;9.65;4.50;;;;;;;;;;4998494;28;20042;-81
2022/05/18 05:51:12;;;;;;;9.27;4.45;;;;;;;;;;5005586;28;20038;-80
2022/05/18 05:53:42;;;;;;;7.10;4.15;;;;;;;;;;5004569;28;20031;-80
2022/05/18 05:56:08;;;;;;;5.82;4.28;;;;;;;;;;4999716;28;20034;-81
2022/05/18 05:58:36;;;;;;;6.90;4.00;;;;;;;;;;4994540;28;20058;-80
2022/05/18 06:01:04;;;;;;;8.88;4.30;;;;;;;;;;4994493;28;20030;-81
2022/05/18 06:03:29;;;;;;;5.70;4.43;;;;;;;;;;4996699;28;20081;-81
2022/05/18 06:05:56;;;;;;;7.05;4.22;;;;;;;;;;4997359;28;20085;-80
2022/05/18 06:08:22;;;;;;;8.95;4.55;;;;;;;;;;5005426;28;20042;-81
2022/05/18 06:10:51;;;;;;;6.55;4.60;;;;;;;;;;5004832;28;20034;-80
2022/05/18 06:13:16;;;;;;;5.97;4.40;;;;;;;;;;5005831;28;20038;-80
2022/05/18 06:15:41;;;;;;;6.90;4.45;;;;;;;;;;5002098;28;20037;-81
2022/05/18 06:18:07;;;;;;;5.78;4.20;;;;;;;;;;5007087;28;20053;-81
2022/05/18 06:20:33;;;;;;;7.40;4.30;;;;;;;;;;5007448;28;20034;-80
2022/05/18 06:23:02;;;;;;;7.70;3.85;;;;;;;;;;5002725;28;20026;-81
2022/05/18 06:25:27;;;;;;;8.18;4.22;;;;;;;;;;4999719;28;20045;-80
2022/05/18 06:27:52;;;;;;;6.85;4.00;;;;;;;;;;5001837;28;20046;-81
2022/05/18 06:30:18;;;;;;;8.07;4.35;;;;;;;;;;5003706;28;20035;-81
2022/05/18 06:32:43;;;;;;;6.10;4.03;;;;;;;;;;5004772;28;20035;-80
2022/05/18 06:35:09;;;;;;;5.03;3.70;;;;;;;;;;5002972;28;20495;-81
2022/05/18 06:37:35;;;;;;;4.97;3.90;;;;;;;;;;5007838;28;20050;-80
2022/05/18 06:40:08;;;;;;;9.02;4.00;;;;;;;;;;5009245;28;20038;-81
2022/05/18 06:42:34;;;;;;;5.18;3.60;;;;;;;;;;5010703;28;20067;-80
2022/05/18 06:45:00;;;;;;;4.75;3.55;;;;;;;;;;5009830;28;20038;-81
2022/05/18 06:47:26;;;;;;;5.78;3.78;;;;;;;;;;5008678;28;20034;-80
2022/05/18 06:49:52;;;;;;;5.05;3.53;;;;;;;;;;5009916;28;20036;-80
2022/05/18 06:52:19;;;;;;;6.10;3.60;;;;;;;;;;4991944;28;20060;-82
2022/05/18 06:54:45;;;;;;;7.88;4.07;;;;;;;;;;5004454;28;20038;-81
2022/05/18 06:57:11;;;;;;;8.07;3.38;;;;;;;;;;5004199;28;20066;-81
2022/05/18 06:59:37;;;;;;;8.60;3.50;;;;;;;;;;4991056;28;20039;-81
2022/05/18 07:02:03;;;;;;;4.35;3.03;;;;;;;;;;5008395;28;20038;-80
2022/05/18 07:04:28;;;;;;;8.38;3.25;;;;;;;;;;5008708;28;20038;-80
2022/05/18 07:06:54;;;;;;;3.80;2.90;;;;;;;;;;5008463;28;20523;-80
2022/05/18 07:09:21;;;;;;;6.43;3.55;;;;;;;;;;5007430;28;20561;-80
2022/05/18 07:11:51;;;;;;;5.57;3.53;;;;;;;;;;5006696;28;20090;-82
2022/05/18 07:14:19;;;;;;;4.38;3.30;;;;;;;;;;5007361;28;20034;-82
2022/05/18 07:16:45;;;;;;;6.43;3.58;;;;;;;;;;4997748;28;20113;-82
2022/05/18 07:19:11;;;;;;;4.45;3.35;;;;;;;;;;4998326;28;20026;-85
2022/05/18 07:21:37;;;;;;;5.40;3.50;;;;;;;;;;4998481;28;20039;-82
2022/05/18 07:24:03;;;;;;;7.00;3.63;;;;;;;;;;4998217;28;20503;-81
2022/05/18 07:26:29;;;;;;;6.68;4.10;;;;;;;;;;4998201;28;20443;-82
2022/05/18 07:28:56;;;;;;;7.47;3.75;;;;;;;;;;4997628;28;20038;-81
2022/05/18 07:31:21;;;;;;;8.70;3.80;;;;;;;;;;4998495;28;20617;-81
2022/05/18 07:33:47;;;;;;;6.43;3.75;;;;;;;;;;4998846;28;20041;-82
2022/05/18 07:36:15;;;;;;;9.05;3.67;;;;;;;;;;4997100;28;20483;-81
2022/05/18 07:38:41;;;;;;;5.38;3.72;;;;;;;;;;4998385;28;20036;-82
2022/05/18 07:41:13;;;;;;;6.18;3.90;;;;;;;;;;4996693;28;20129;-82
2022/05/18 07:43:39;;;;;;;6.55;3.92;;;;;;;;;;4998305;28;20030;-82
2022/05/18 07:46:05;;;;;;;5.63;3.75;;;;;;;;;;4997041;28;20557;-82
2022/05/18 07:48:31;;;;;;;5.00;3.83;;;;;;;;;;4998443;28;20041;-81
2022/05/18 07:50:57;;;;;;;6.15;3.63;;;;;;;;;;4997995;28;20035;-82
2022/05/18 07:53:23;;;;;;;5.45;3.88;;;;;;;;;;4998206;28;20034;-82
2022/05/18 07:55:49;;;;;;;6.70;3.88;;;;;;;;;;4998202;28;20030;-82
2022/05/18 07:58:17;;;;;;;7.13;4.07;;;;;;;;;;4997419;28;20037;-83
2022/05/18 08:00:43;;;;;;;6.63;4.53;;;;;;;;;;4998900;28;20044;-82
2022/05/18 08:03:09;;;;;;;6.60;4.30;;;;;;;;;;4997912;28;20565;-82
2022/05/18 08:05:36;;;;;;;6.47;4.32;;;;;;;;;;5002806;28;20026;-81
2022/05/18 08:08:07;;;;;;;5.65;4.20;;;;;;;;;;5006709;28;20065;-81
2022/05/18 08:16:00;;;;;;;7.50;4.40;;;;;;;;;;5004414;28;20411;-80
2022/05/18 08:18:26;;;;;;;8.85;4.40;;;;;;;;;;5006019;28;20049;-81
2022/05/18 08:20:51;;;;;;;5.35;3.83;;;;;;;;;;5003682;28;20041;-80
2022/05/18 08:23:17;;;;;;;6.78;4.40;;;;;;;;;;5005017;28;20089;-80
2022/05/18 08:25:48;;;;;;;6.43;4.60;;;;;;;;;;5005455;28;20026;-81
2022/05/18 08:28:15;;;;;;;10.00;5.03;;;;;;;;;;5004955;28;20316;-81
2022/05/18 08:30:43;;;;;;;7.78;4.20;;;;;;;;;;5005340;28;20094;-81
2022/05/18 08:33:09;;;;;;;7.47;4.07;;;;;;;;;;5003437;28;20030;-81
2022/05/18 08:35:35;;;;;;;7.63;4.50;;;;;;;;;;5002577;28;20129;-81
2022/05/18 08:38:01;;;;;;;8.57;4.10;;;;;;;;;;5004283;28;20093;-81
2022/05/18 08:40:29;;;;;;;7.88;4.60;;;;;;;;;;5004040;28;20030;-81
2022/05/18 08:43:04;;;;;;;6.72;3.80;;;;;;;;;;5003609;28;20057;-81
2022/05/18 08:45:33;;;;;;;6.82;4.05;;;;;;;;;;5003587;28;20041;-80
2022/05/18 08:48:06;;;;;;;7.43;4.25;;;;;;;;;;5002705;28;20034;-81
2022/05/18 08:50:32;;;;;;;9.18;4.90;;;;;;;;;;5002343;28;20069;-80
2022/05/18 08:53:23;;;;;;;7.07;4.30;;;;;;;;;;5002221;28;20032;-81
2022/05/18 08:56:02;;;;;;;7.28;4.40;;;;;;;;;;5001851;28;20065;-83
2022/05/18 08:58:39;;;;;;;10.02;4.50;;;;;;;;;;4985521;28;20042;-81
2022/05/18 09:01:19;;;;;;;8.27;4.13;;;;;;;;;;5003590;28;20061;-81
2022/05/18 09:04:17;;;;;;;7.65;4.40;;;;;;;;;;5002715;28;20076;-81
2022/05/18 09:06:53;;;;;;;7.55;4.28;;;;;;;;;;5002977;28;20497;-81
2022/05/18 09:12:12;;;;;;;7.32;4.18;;;;;;;;;;5003335;28;20045;-84
2022/05/18 09:14:40;;;;;;;6.30;3.95;;;;;;;;;;5003124;28;20479;-81
2022/05/18 09:17:50;;;;;;;9.38;4.40;;;;;;;;;;5003141;28;20070;-81
2022/05/18 09:20:41;;;;;;;8.73;4.40;;;;;;;;;;4986404;28;20050;-81
2022/05/18 09:23:50;;;;;;;5.78;4.40;;;;;;;;;;5003084;28;20053;-83
2022/05/18 09:26:39;;;;;;;7.65;4.85;;;;;;;;;;4923312;29;20060;-81
2022/05/18 09:29:19;;;;;;;11.30;6.10;;;;;;;;;;4983769;28;20058;-81
2022/05/18 09:32:16;;;;;;;8.70;6.05;;;;;;;;;;5002232;28;20113;-81
2022/05/18 09:35:12;;;;;;;10.77;5.30;;;;;;;;;;5000886;28;20045;-82
2022/05/18 09:37:44;;;;;;;9.50;5.63;;;;;;;;;;5001881;28;20038;-82
2022/05/18 09:40:24;;;;;;;8.45;5.40;;;;;;;;;;5003102;28;20045;-83
2022/05/18 09:43:13;;;;;;;9.20;5.50;;;;;;;;;;5001428;28;20039;-82
2022/05/18 09:45:43;;;;;;;7.25;5.22;;;;;;;;;;4971823;28;20081;-82
2022/05/18 09:48:26;;;;;;;7.65;5.45;;;;;;;;;;5001731;28;20038;-83
2022/05/18 09:50:51;;;;;;;9.50;5.38;;;;;;;;;;5001297;28;20418;-82
2022/05/18 09:53:19;;;;;;;8.70;4.50;;;;;;;;;;5002387;28;20034;-83
2022/05/18 09:55:47;;;;;;;7.78;4.45;;;;;;;;;;5000061;28;20121;-83
2022/05/18 09:58:19;;;;;;;8.95;4.93;;;;;;;;;;5001455;28;20035;-83
2022/05/18 10:00:45;;;;;;;8.02;4.90;;;;;;;;;;5001241;28;20046;-84
2022/05/18 10:08:58;;;;;;;8.90;5.05;;;;;;;;;;5005141;28;20038;-82
2022/05/18 10:11:32;;;;;;;8.77;4.28;;;;;;;;;;5004687;28;20038;-83
2022/05/18 10:14:08;;;;;;;7.40;3.78;;;;;;;;;;5004541;28;20038;-83
2022/05/18 10:16:40;;;;;;;4.57;3.45;;;;;;;;;;5002988;28;20133;-83
2022/05/18 10:19:14;;;;;;;6.40;3.65;;;;;;;;;;5004066;28;20042;-82
2022/05/18 10:21:55;;;;;;;6.50;3.65;;;;;;;;;;5004184;28;20027;-82
2022/05/18 10:24:39;;;;;;;9.40;3.67;;;;;;;;;;5003561;28;20038;-82
2022/05/18 10:27:16;;;;;;;9.73;2.97;;;;;;;;;;5003894;28;20045;-82
2022/05/18 10:29:44;;;;;;;6.03;3.45;;;;;;;;;;5003039;28;20545;-83
2022/05/18 10:32:21;;;;;;;7.00;3.67;;;;;;;;;;4987841;28;20046;-82
2022/05/18 10:34:52;;;;;;;14.65;3.30;;;;;;;;;;5004342;28;20046;-82
2022/05/18 10:37:33;;;;;;;6.63;3.72;;;;;;;;;;4996075;28;20042;-82
2022/05/18 10:39:58;;;;;;;4.88;3.40;;;;;;;;;;4998166;28;20042;-82
2022/05/18 10:42:30;;;;;;;7.15;3.47;;;;;;;;;;4984362;28;20041;-83
2022/05/18 10:44:59;;;;;;;4.63;3.10;;;;;;;;;;4986604;28;20102;-83
2022/05/18 10:47:38;;;;;;;6.35;3.45;;;;;;;;;;4968220;28;20066;-82
2022/05/18 10:50:21;;;;;;;4.43;3.20;;;;;;;;;;4967648;28;20064;-82
2022/05/18 10:52:47;;;;;;;7.38;3.22;;;;;;;;;;4985545;28;20042;-83
2022/05/18 10:55:17;;;;;;;6.32;3.22;;;;;;;;;;5004299;28;20068;-83
2022/05/18 10:58:04;;;;;;;4.80;2.90;;;;;;;;;;5003620;28;20043;-83
2022/05/18 11:00:48;;;;;;;6.47;3.22;;;;;;;;;;5004662;28;20042;-83
2022/05/18 11:03:42;;;;;;;7.32;3.20;;;;;;;;;;4986899;23;20058;-86
2022/05/18 11:06:13;;;;;;;7.40;2.70;;;;;;;;;;4972678;28;20039;-84
2022/05/18 11:08:39;;;;;;;5.75;3.20;;;;;;;;;;4973459;28;20043;-84
2022/05/18 11:11:17;;;;;;;4.32;3.08;;;;;;;;;;4973242;28;20038;-83
2022/05/18 11:13:51;;;;;;;5.18;2.80;;;;;;;;;;4958376;28;20086;-85
2022/05/18 11:16:16;;;;;;;6.22;3.00;;;;;;;;;;4957271;28;20500;-86
2022/05/18 11:18:42;;;;;;;6.72;3.05;;;;;;;;;;4975094;28;20519;-82
2022/05/18 11:21:16;;;;;;;5.72;3.20;;;;;;;;;;4958140;29;20412;-88
2022/05/18 11:24:10;;;;;;;7.00;3.20;;;;;;;;;;4972796;28;20408;-86
2022/05/18 11:26:47;;;;;;;9.27;3.45;;;;;;;;;;4957895;28;20039;-87
2022/05/18 11:29:45;;;;;;;6.63;3.20;;;;;;;;;;4956439;29;20035;-88
2022/05/18 11:32:26;;;;;;;6.63;3.10;;;;;;;;;;4955810;28;20043;-86
2022/05/18 11:35:17;;;;;;;6.35;2.95;;;;;;;;;;4972865;28;20680;-86
2022/05/18 11:37:57;;;;;;;5.88;3.13;;;;;;;;;;4959288;28;20118;-87
2022/05/18 11:40:42;;;;;;;3.90;2.75;;;;;;;;;;4958585;28;20499;-88
2022/05/18 11:43:28;;;;;;;5.53;2.90;;;;;;;;;;4961594;28;20039;-86
2022/05/18 11:46:12;;;;;;;5.30;2.67;;;;;;;;;;4957552;28;20440;-86
2022/05/18 11:48:47;;;;;;;4.22;2.70;;;;;;;;;;4981764;28;20499;-87
2022/05/18 11:51:24;;;;;;;5.28;2.55;;;;;;;;;;4960230;28;20027;-86
2022/05/18 11:54:11;;;;;;;7.70;2.90;;;;;;;;;;4973051;28;20038;-88
2022/05/18 11:57:03;;;;;;;6.28;2.60;;;;;;;;;;4973630;28;20043;-86
2022/05/18 11:59:52;;;;;;;5.53;2.80;;;;;;;;;;4959677;28;20549;-87
2022/05/18 12:02:20;;;;;;;7.20;2.90;;;;;;;;;;4960183;28;20031;-88
2022/05/18 12:04:48;;;;;;;5.55;2.78;;;;;;;;;;4958887;28;20039;-86
2022/05/18 12:07:29;;;;;;;6.45;2.50;;;;;;;;;;4974565;28;20035;-88
2022/05/18 12:10:20;;;;;;;5.80;2.20;;;;;;;;;;4959423;28;20067;-85
2022/05/18 12:12:59;;;;;;;5.55;2.55;;;;;;;;;;4959020;28;20043;-84
2022/05/18 12:15:40;;;;;;;4.53;2.53;;;;;;;;;;4973048;28;20043;-86
2022/05/18 12:18:19;;;;;;;4.22;2.33;;;;;;;;;;4956870;28;20037;-86
2022/05/18 12:20:45;;;;;;;7.05;2.50;;;;;;;;;;4971520;28;20031;-85
2022/05/18 12:23:15;;;;;;;3.30;2.17;;;;;;;;;;4971102;28;20039;-90
2022/05/18 12:25:42;;;;;;;4.35;2.17;;;;;;;;;;4971040;28;20038;-87
2022/05/18 12:28:11;;;;;;;4.50;2.30;;;;;;;;;;4956242;28;20078;-86
2022/05/18 12:30:39;;;;;;;4.45;2.08;;;;;;;;;;4956463;28;20061;-87
2022/05/18 12:33:07;;;;;;;6.43;2.22;;;;;;;;;;4971661;28;20063;-86
2022/05/18 12:35:36;;;;;;;4.32;1.98;;;;;;;;;;4955888;28;20039;-86
2022/05/18 12:38:02;;;;;;;3.38;2.30;;;;;;;;;;4962843;28;20051;-86
2022/05/18 12:40:49;;;;;;;4.03;2.30;;;;;;;;;;4956271;29;20174;-86
2022/05/18 12:43:27;;;;;;;4.22;2.35;;;;;;;;;;4954342;29;20035;-85
2022/05/18 12:45:59;;;;;;;4.13;2.35;;;;;;;;;;4970060;28;20031;-86
2022/05/18 12:48:33;;;;;;;4.25;2.13;;;;;;;;;;4955326;28;20066;-86
2022/05/18 12:51:05;;;;;;;5.03;2.00;;;;;;;;;;4960337;29;20039;-88
2022/05/18 12:53:42;;;;;;;3.28;1.92;;;;;;;;;;4961547;28;20113;-87
2022/05/18 12:56:26;;;;;;;6.10;2.10;;;;;;;;;;4959683;29;20035;-85
2022/05/18 12:58:56;;;;;;;;;;;;;;;;;;4972827;28;20043;-87
2022/05/18 13:01:24;;;;;;;5.90;1.90;;;;;;;;;;4954245;29;19915;-87
2022/05/18 13:04:08;;;;;;;3.50;2.00;;;;;;;;;;4955584;28;20039;-86
2022/05/18 13:06:42;;;;;;;4.28;2.00;;;;;;;;;;4955139;28;20428;-87
2022/05/18 13:09:25;;;;;;;4.40;1.90;;;;;;;;;;4958667;28;20043;-86
2022/05/18 13:11:58;;;;;;;4.18;1.73;;;;;;;;;;4970720;28;20027;-84
2022/05/18 13:14:49;;;;;;;4.03;1.80;;;;;;;;;;4970200;28;20039;-87
2022/05/18 13:17:16;;;;;;;3.45;2.03;;;;;;;;;;4970386;28;20117;-87
2022/05/18 13:19:48;;;;;;;4.07;1.80;;;;;;;;;;4969868;28;20488;-86
2022/05/18 13:22:16;;;;;;;3.90;1.80;;;;;;;;;;4970171;28;20106;-88
2022/05/18 13:25:04;;;;;;;3.10;1.75;;;;;;;;;;4955118;28;20035;-87
2022/05/18 13:27:35;;;;;;;4.22;1.90;;;;;;;;;;4957056;28;20496;-88
2022/05/18 13:30:06;;;;;;;2.67;1.90;;;;;;;;;;4959271;29;20523;-88
2022/05/18 13:32:36;;;;;;;2.67;1.80;;;;;;;;;;4962669;28;20039;-87
2022/05/18 13:35:12;;;;;;;2.90;1.67;;;;;;;;;;4971169;28;20034;-86
2022/05/18 13:37:38;;;;;;;5.97;2.10;;;;;;;;;;4954987;28;20432;-86
2022/05/18 13:40:05;;;;;;;4.10;2.05;;;;;;;;;;4974177;28;20051;-85
2022/05/18 13:42:32;;;;;;;3.95;2.08;;;;;;;;;;4959382;28;20123;-86
2022/05/18 13:45:10;;;;;;;2.70;2.00;;;;;;;;;;4959159;28;20110;-86
2022/05/18 13:47:42;;;;;;;3.83;2.03;;;;;;;;;;4974184;28;20062;-87
2022/05/18 13:50:17;;;;;;;3.85;1.90;;;;;;;;;;4959980;28;20097;-86
2022/05/18 13:52:42;;;;;;;9.40;2.20;;;;;;;;;;4960226;28;20035;-87
2022/05/18 13:55:13;;;;;;;5.20;1.98;;;;;;;;;;4959253;28;20042;-87
2022/05/18 13:57:44;;;;;;;4.05;2.08;;;;;;;;;;4973207;28;20035;-87
2022/05/18 14:00:46;;;;;;;4.82;1.90;;;;;;;;;;4957868;28;20113;-86
2022/05/18 14:03:15;;;;;;;4.05;1.83;;;;;;;;;;4950311;28;20110;-87
2022/05/18 14:05:41;;;;;;;4.28;1.80;;;;;;;;;;4968878;28;20063;-87
2022/05/18 14:08:22;;;;;;;2.78;1.75;;;;;;;;;;4959544;28;20066;-87
2022/05/18 14:10:47;;;;;;;4.07;1.80;;;;;;;;;;4959229;28;20043;-86
2022/05/18 14:13:13;;;;;;;4.00;1.88;;;;;;;;;;4959582;28;20553;-88
2022/05/18 14:15:40;;;;;;;6.78;1.95;;;;;;;;;;4975019;28;20042;-88
2022/05/18 14:18:11;;;;;;;3.45;1.73;;;;;;;;;;4975203;28;20459;-87
2022/05/18 14:20:43;;;;;;;3.17;2.03;;;;;;;;;;4975767;28;20569;-89
2022/05/18 14:23:16;;;;;;;3.92;1.80;;;;;;;;;;4959757;28;20083;-87
2022/05/18 14:25:45;;;;;;;6.35;1.80;;;;;;;;;;4960887;28;20047;-87
2022/05/18 14:28:14;;;;;;;3.17;1.65;;;;;;;;;;4961317;28;20031;-88
2022/05/18 14:30:45;;;;;;;3.05;1.65;;;;;;;;;;4960815;28;20039;-87
2022/05/18 14:33:18;;;;;;;3.50;1.50;;;;;;;;;;4958240;29;20031;-89
2022/05/18 14:35:51;;;;;;;4.88;1.60;;;;;;;;;;4973492;28;20094;-86
2022/05/18 14:38:41;;;;;;;3.38;1.67;;;;;;;;;;4960340;28;20047;-87
2022/05/18 14:41:09;;;;;;;5.00;1.60;;;;;;;;;;4956170;28;20039;-88
2022/05/18 14:43:35;;;;;;;4.18;1.70;;;;;;;;;;4972687;28;20040;-85
2022/05/18 14:46:05;;;;;;;4.82;2.03;;;;;;;;;;4957248;28;20118;-86
2022/05/18 14:48:42;;;;;;;7.13;1.90;;;;;;;;;;4957622;28;20042;-88
2022/05/18 14:51:28;;;;;;;4.38;1.67;;;;;;;;;;4956826;29;20058;-87
2022/05/18 14:53:57;;;;;;;5.15;1.63;;;;;;;;;;4971707;28;20035;-89
2022/05/18 14:56:27;;;;;;;4.50;2.05;;;;;;;;;;4956803;28;20611;-86
2022/05/18 14:58:56;;;;;;;3.33;1.70;;;;;;;;;;4955456;29;20073;-88
2022/05/18 15:01:29;;;;;;;5.15;1.98;;;;;;;;;;4971930;28;20045;-88
2022/05/18 15:03:55;;;;;;;11.07;2.25;;;;;;;;;;4971478;28;20399;-87
2022/05/18 15:06:27;;;;;;;5.32;2.10;;;;;;;;;;4955225;29;20023;-84
2022/05/18 15:08:54;;;;;;;4.63;2.10;;;;;;;;;;4957493;28;20050;-87
2022/05/18 15:11:33;;;;;;;4.65;1.98;;;;;;;;;;4973635;28;20043;-87
2022/05/18 15:14:32;;;;;;;6.63;2.13;;;;;;;;;;4970896;28;20110;-88
2022/05/18 15:17:00;;;;;;;6.05;1.70;;;;;;;;;;4967933;28;20036;-88
2022/05/18 15:19:35;;;;;;;7.13;1.80;;;;;;;;;;4971919;28;20039;-87
2022/05/18 15:22:06;;;;;;;2.35;1.80;;;;;;;;;;4974926;28;20038;-86
2022/05/18 15:24:32;;;;;;;6.20;1.90;;;;;;;;;;4971413;28;20400;-87